sensor_id;sensor_type;location;lat;lon;timestamp;P1;durP1;ratioP1;P2;durP2;ratioP2
6549;SDS011;15142;48.888;9.134;2023-04-24T00:00:53;3.07;;;0.50;;
6549;SDS011;15142;48.888;9.134;2023-04-24T00:03:22;1.00;;;0.63;;
6549;SDS011;15142;48.888;9.134;2023-04-24T00:05:53;1.53;;;0.90;;
6549;SDS011;15142;48.888;9.134;2023-04-24T00:08:22;0.70;;;0.70;;
6549;SDS011;15142;48.888;9.134;2023-04-24T00:10:53;0.70;;;0.70;;
6549;SDS011;15142;48.888;9.134;2023-04-24T00:13:22;0.50;;;0.50;;
6549;SDS011;15142;48.888;9.134;2023-04-24T00:15:50;0.60;;;0.60;;
6549;SDS011;15142;48.888;9.134;2023-04-24T00:18:19;4.37;;;1.23;;
6549;SDS011;15142;48.888;9.134;2023-04-24T00:20:48;3.03;;;0.90;;
6549;SDS011;15142;48.888;9.134;2023-04-24T00:23:17;0.50;;;0.50;;
6549;SDS011;15142;48.888;9.134;2023-04-24T00:25:45;1.23;;;0.70;;
6549;SDS011;15142;48.888;9.134;2023-04-24T00:28:16;0.73;;;0.60;;
6549;SDS011;15142;48.888;9.134;2023-04-24T00:30:45;1.27;;;0.80;;
6549;SDS011;15142;48.888;9.134;2023-04-24T00:33:14;1.37;;;0.70;;
6549;SDS011;15142;48.888;9.134;2023-04-24T00:35:42;0.47;;;0.47;;
6549;SDS011;15142;48.888;9.134;2023-04-24T00:38:11;2.30;;;1.00;;
6549;SDS011;15142;48.888;9.134;2023-04-24T00:40:41;1.50;;;0.60;;
6549;SDS011;15142;48.888;9.134;2023-04-24T00:43:09;0.53;;;0.50;;
6549;SDS011;15142;48.888;9.134;2023-04-24T00:45:41;0.50;;;0.50;;
6549;SDS011;15142;48.888;9.134;2023-04-24T00:48:10;1.77;;;0.87;;
6549;SDS011;15142;48.888;9.134;2023-04-24T00:50:40;0.50;;;0.50;;
6549;SDS011;15142;48.888;9.134;2023-04-24T00:53:08;0.77;;;0.50;;
6549;SDS011;15142;48.888;9.134;2023-04-24T00:55:37;1.17;;;0.60;;
6549;SDS011;15142;48.888;9.134;2023-04-24T00:58:06;0.90;;;0.90;;
6549;SDS011;15142;48.888;9.134;2023-04-24T01:00:35;0.40;;;0.40;;
6549;SDS011;15142;48.888;9.134;2023-04-24T01:03:07;0.70;;;0.50;;
6549;SDS011;15142;48.888;9.134;2023-04-24T01:05:36;1.07;;;0.70;;
6549;SDS011;15142;48.888;9.134;2023-04-24T01:08:05;0.77;;;0.60;;
6549;SDS011;15142;48.888;9.134;2023-04-24T01:10:35;1.30;;;0.80;;
6549;SDS011;15142;48.888;9.134;2023-04-24T01:13:05;1.13;;;1.03;;
6549;SDS011;15142;48.888;9.134;2023-04-24T01:15:35;1.17;;;0.67;;
6549;SDS011;15142;48.888;9.134;2023-04-24T01:18:06;0.93;;;0.80;;
6549;SDS011;15142;48.888;9.134;2023-04-24T01:20:35;0.40;;;0.40;;
6549;SDS011;15142;48.888;9.134;2023-04-24T01:23:08;0.87;;;0.87;;
6549;SDS011;15142;48.888;9.134;2023-04-24T01:25:37;0.73;;;0.60;;
6549;SDS011;15142;48.888;9.134;2023-04-24T01:28:05;0.63;;;0.63;;
6549;SDS011;15142;48.888;9.134;2023-04-24T01:30:34;0.97;;;0.97;;
6549;SDS011;15142;48.888;9.134;2023-04-24T01:33:03;5.60;;;0.60;;
6549;SDS011;15142;48.888;9.134;2023-04-24T01:35:31;1.53;;;0.77;;
6549;SDS011;15142;48.888;9.134;2023-04-24T01:38:01;1.13;;;0.97;;
6549;SDS011;15142;48.888;9.134;2023-04-24T01:40:33;0.60;;;0.60;;
6549;SDS011;15142;48.888;9.134;2023-04-24T01:43:03;0.60;;;0.60;;
6549;SDS011;15142;48.888;9.134;2023-04-24T01:45:31;0.60;;;0.60;;
6549;SDS011;15142;48.888;9.134;2023-04-24T01:48:03;0.70;;;0.70;;
6549;SDS011;15142;48.888;9.134;2023-04-24T01:50:32;1.40;;;0.90;;
6549;SDS011;15142;48.888;9.134;2023-04-24T01:53:03;0.77;;;0.77;;
6549;SDS011;15142;48.888;9.134;2023-04-24T01:55:34;0.57;;;0.57;;
6549;SDS011;15142;48.888;9.134;2023-04-24T01:58:03;0.40;;;0.40;;
6549;SDS011;15142;48.888;9.134;2023-04-24T02:00:32;1.03;;;0.60;;
6549;SDS011;15142;48.888;9.134;2023-04-24T02:03:01;0.70;;;0.70;;
6549;SDS011;15142;48.888;9.134;2023-04-24T02:05:30;0.80;;;0.80;;
6549;SDS011;15142;48.888;9.134;2023-04-24T02:07:58;1.13;;;0.80;;
6549;SDS011;15142;48.888;9.134;2023-04-24T02:10:27;1.03;;;0.73;;
6549;SDS011;15142;48.888;9.134;2023-04-24T02:13:00;1.70;;;0.93;;
6549;SDS011;15142;48.888;9.134;2023-04-24T02:15:30;0.73;;;0.73;;
6549;SDS011;15142;48.888;9.134;2023-04-24T02:17:58;0.77;;;0.77;;
6549;SDS011;15142;48.888;9.134;2023-04-24T02:20:27;2.10;;;0.80;;
6549;SDS011;15142;48.888;9.134;2023-04-24T02:22:56;0.60;;;0.60;;
6549;SDS011;15142;48.888;9.134;2023-04-24T02:25:24;1.30;;;1.20;;
6549;SDS011;15142;48.888;9.134;2023-04-24T02:27:55;1.70;;;1.33;;
6549;SDS011;15142;48.888;9.134;2023-04-24T02:30:26;2.20;;;0.73;;
6549;SDS011;15142;48.888;9.134;2023-04-24T02:32:54;3.27;;;1.20;;
6549;SDS011;15142;48.888;9.134;2023-04-24T02:35:23;0.73;;;0.70;;
6549;SDS011;15142;48.888;9.134;2023-04-24T02:37:51;0.77;;;0.60;;
6549;SDS011;15142;48.888;9.134;2023-04-24T02:40:21;0.80;;;0.77;;
6549;SDS011;15142;48.888;9.134;2023-04-24T02:42:49;0.97;;;0.87;;
6549;SDS011;15142;48.888;9.134;2023-04-24T02:45:18;1.20;;;1.10;;
6549;SDS011;15142;48.888;9.134;2023-04-24T02:47:49;0.70;;;0.70;;
6549;SDS011;15142;48.888;9.134;2023-04-24T02:50:18;3.13;;;0.87;;
6549;SDS011;15142;48.888;9.134;2023-04-24T02:52:46;0.60;;;0.60;;
6549;SDS011;15142;48.888;9.134;2023-04-24T02:55:15;2.23;;;1.20;;
6549;SDS011;15142;48.888;9.134;2023-04-24T02:57:44;1.33;;;0.80;;
6549;SDS011;15142;48.888;9.134;2023-04-24T03:00:13;0.70;;;0.70;;
6549;SDS011;15142;48.888;9.134;2023-04-24T03:02:42;1.07;;;1.07;;
6549;SDS011;15142;48.888;9.134;2023-04-24T03:05:13;1.00;;;0.90;;
6549;SDS011;15142;48.888;9.134;2023-04-24T03:07:42;1.00;;;0.90;;
6549;SDS011;15142;48.888;9.134;2023-04-24T03:10:11;0.80;;;0.80;;
6549;SDS011;15142;48.888;9.134;2023-04-24T03:12:40;4.33;;;0.80;;
6549;SDS011;15142;48.888;9.134;2023-04-24T03:15:09;0.60;;;0.60;;
6549;SDS011;15142;48.888;9.134;2023-04-24T03:17:38;1.07;;;1.00;;
6549;SDS011;15142;48.888;9.134;2023-04-24T03:20:07;0.90;;;0.90;;
6549;SDS011;15142;48.888;9.134;2023-04-24T03:22:39;1.07;;;0.67;;
6549;SDS011;15142;48.888;9.134;2023-04-24T03:25:08;1.13;;;1.07;;
6549;SDS011;15142;48.888;9.134;2023-04-24T03:27:37;0.93;;;0.93;;
6549;SDS011;15142;48.888;9.134;2023-04-24T03:30:27;1.17;;;0.80;;
6549;SDS011;15142;48.888;9.134;2023-04-24T03:32:58;1.03;;;1.00;;
6549;SDS011;15142;48.888;9.134;2023-04-24T03:35:31;1.47;;;1.10;;
6549;SDS011;15142;48.888;9.134;2023-04-24T03:38:05;2.30;;;0.63;;
6549;SDS011;15142;48.888;9.134;2023-04-24T03:40:43;0.60;;;0.60;;
6549;SDS011;15142;48.888;9.134;2023-04-24T03:43:31;0.80;;;0.80;;
6549;SDS011;15142;48.888;9.134;2023-04-24T03:46:01;0.50;;;0.50;;
6549;SDS011;15142;48.888;9.134;2023-04-24T03:48:35;0.80;;;0.67;;
6549;SDS011;15142;48.888;9.134;2023-04-24T03:51:06;1.00;;;1.00;;
6549;SDS011;15142;48.888;9.134;2023-04-24T03:53:38;1.43;;;1.17;;
6549;SDS011;15142;48.888;9.134;2023-04-24T03:56:08;1.77;;;1.20;;
6549;SDS011;15142;48.888;9.134;2023-04-24T03:58:37;0.77;;;0.77;;
6549;SDS011;15142;48.888;9.134;2023-04-24T04:01:06;0.73;;;0.73;;
6549;SDS011;15142;48.888;9.134;2023-04-24T04:04:01;0.90;;;0.90;;
6549;SDS011;15142;48.888;9.134;2023-04-24T04:06:29;0.60;;;0.60;;
6549;SDS011;15142;48.888;9.134;2023-04-24T04:09:02;0.77;;;0.70;;
6549;SDS011;15142;48.888;9.134;2023-04-24T04:11:32;0.60;;;0.60;;
6549;SDS011;15142;48.888;9.134;2023-04-24T04:14:01;0.70;;;0.70;;
6549;SDS011;15142;48.888;9.134;2023-04-24T04:16:32;1.13;;;0.83;;
6549;SDS011;15142;48.888;9.134;2023-04-24T04:19:02;0.67;;;0.67;;
6549;SDS011;15142;48.888;9.134;2023-04-24T04:21:31;3.87;;;1.17;;
6549;SDS011;15142;48.888;9.134;2023-04-24T04:24:20;2.40;;;0.50;;
6549;SDS011;15142;48.888;9.134;2023-04-24T04:26:50;1.20;;;0.83;;
6549;SDS011;15142;48.888;9.134;2023-04-24T04:29:26;1.07;;;1.07;;
6549;SDS011;15142;48.888;9.134;2023-04-24T04:31:57;2.77;;;1.07;;
6549;SDS011;15142;48.888;9.134;2023-04-24T04:34:27;1.17;;;1.07;;
6549;SDS011;15142;48.888;9.134;2023-04-24T04:36:57;1.23;;;1.13;;
6549;SDS011;15142;48.888;9.134;2023-04-24T04:39:46;3.10;;;0.90;;
6549;SDS011;15142;48.888;9.134;2023-04-24T04:42:18;1.50;;;1.00;;
6549;SDS011;15142;48.888;9.134;2023-04-24T04:44:49;2.20;;;0.83;;
6549;SDS011;15142;48.888;9.134;2023-04-24T04:47:24;1.37;;;1.10;;
6549;SDS011;15142;48.888;9.134;2023-04-24T04:49:56;1.40;;;1.30;;
6549;SDS011;15142;48.888;9.134;2023-04-24T04:52:26;1.20;;;1.10;;
6549;SDS011;15142;48.888;9.134;2023-04-24T04:55:07;1.60;;;0.87;;
6549;SDS011;15142;48.888;9.134;2023-04-24T04:57:56;3.63;;;1.00;;
6549;SDS011;15142;48.888;9.134;2023-04-24T05:00:26;1.03;;;1.03;;
6549;SDS011;15142;48.888;9.134;2023-04-24T05:03:01;1.43;;;1.43;;
6549;SDS011;15142;48.888;9.134;2023-04-24T05:05:31;1.17;;;1.10;;
6549;SDS011;15142;48.888;9.134;2023-04-24T05:08:00;4.70;;;1.30;;
6549;SDS011;15142;48.888;9.134;2023-04-24T05:10:31;1.40;;;1.30;;
6549;SDS011;15142;48.888;9.134;2023-04-24T05:13:03;1.00;;;1.00;;
6549;SDS011;15142;48.888;9.134;2023-04-24T05:15:33;1.23;;;1.07;;
6549;SDS011;15142;48.888;9.134;2023-04-24T05:18:02;1.30;;;1.30;;
6549;SDS011;15142;48.888;9.134;2023-04-24T05:20:32;1.77;;;1.40;;
6549;SDS011;15142;48.888;9.134;2023-04-24T05:23:01;1.00;;;1.00;;
6549;SDS011;15142;48.888;9.134;2023-04-24T05:25:32;1.33;;;1.23;;
6549;SDS011;15142;48.888;9.134;2023-04-24T05:28:06;1.30;;;1.30;;
6549;SDS011;15142;48.888;9.134;2023-04-24T05:30:35;1.43;;;1.00;;
6549;SDS011;15142;48.888;9.134;2023-04-24T05:33:05;1.33;;;1.33;;
6549;SDS011;15142;48.888;9.134;2023-04-24T05:35:35;1.60;;;1.43;;
6549;SDS011;15142;48.888;9.134;2023-04-24T05:38:04;1.27;;;1.03;;
6549;SDS011;15142;48.888;9.134;2023-04-24T05:40:35;1.00;;;1.00;;
6549;SDS011;15142;48.888;9.134;2023-04-24T05:43:04;1.93;;;1.53;;
6549;SDS011;15142;48.888;9.134;2023-04-24T05:45:33;1.57;;;1.43;;
6549;SDS011;15142;48.888;9.134;2023-04-24T05:48:02;1.53;;;1.43;;
6549;SDS011;15142;48.888;9.134;2023-04-24T05:50:32;1.27;;;1.27;;
6549;SDS011;15142;48.888;9.134;2023-04-24T05:53:01;1.40;;;1.33;;
6549;SDS011;15142;48.888;9.134;2023-04-24T05:55:37;2.60;;;1.60;;
6549;SDS011;15142;48.888;9.134;2023-04-24T05:58:05;5.60;;;1.87;;
6549;SDS011;15142;48.888;9.134;2023-04-24T06:00:35;2.10;;;1.40;;
6549;SDS011;15142;48.888;9.134;2023-04-24T06:03:07;1.20;;;1.20;;
6549;SDS011;15142;48.888;9.134;2023-04-24T06:05:35;1.70;;;1.60;;
6549;SDS011;15142;48.888;9.134;2023-04-24T06:08:04;1.33;;;1.23;;
6549;SDS011;15142;48.888;9.134;2023-04-24T06:10:57;1.60;;;1.50;;
6549;SDS011;15142;48.888;9.134;2023-04-24T06:13:26;1.90;;;1.80;;
6549;SDS011;15142;48.888;9.134;2023-04-24T06:16:13;2.37;;;2.17;;
6549;SDS011;15142;48.888;9.134;2023-04-24T06:18:48;3.50;;;2.30;;
6549;SDS011;15142;48.888;9.134;2023-04-24T06:21:18;2.80;;;2.60;;
6549;SDS011;15142;48.888;9.134;2023-04-24T06:23:47;2.47;;;1.47;;
6549;SDS011;15142;48.888;9.134;2023-04-24T06:26:19;2.83;;;2.60;;
6549;SDS011;15142;48.888;9.134;2023-04-24T06:28:47;2.60;;;2.17;;
6549;SDS011;15142;48.888;9.134;2023-04-24T06:31:18;4.03;;;1.70;;
6549;SDS011;15142;48.888;9.134;2023-04-24T06:33:47;1.60;;;1.50;;
6549;SDS011;15142;48.888;9.134;2023-04-24T06:36:17;1.83;;;1.73;;
6549;SDS011;15142;48.888;9.134;2023-04-24T06:38:45;2.40;;;2.07;;
6549;SDS011;15142;48.888;9.134;2023-04-24T06:41:14;1.53;;;1.50;;
6549;SDS011;15142;48.888;9.134;2023-04-24T06:43:45;1.77;;;1.27;;
6549;SDS011;15142;48.888;9.134;2023-04-24T06:46:13;1.50;;;1.40;;
6549;SDS011;15142;48.888;9.134;2023-04-24T06:48:43;1.37;;;1.27;;
6549;SDS011;15142;48.888;9.134;2023-04-24T06:51:11;1.70;;;1.60;;
6549;SDS011;15142;48.888;9.134;2023-04-24T06:53:40;2.27;;;1.90;;
6549;SDS011;15142;48.888;9.134;2023-04-24T06:56:08;2.77;;;2.00;;
6549;SDS011;15142;48.888;9.134;2023-04-24T06:58:37;1.87;;;1.73;;
6549;SDS011;15142;48.888;9.134;2023-04-24T07:01:09;2.00;;;1.80;;
6549;SDS011;15142;48.888;9.134;2023-04-24T07:03:37;2.63;;;1.20;;
6549;SDS011;15142;48.888;9.134;2023-04-24T07:06:06;2.00;;;1.90;;
6549;SDS011;15142;48.888;9.134;2023-04-24T07:08:35;1.13;;;1.13;;
6549;SDS011;15142;48.888;9.134;2023-04-24T07:11:04;1.80;;;1.60;;
6549;SDS011;15142;48.888;9.134;2023-04-24T07:13:33;1.30;;;1.20;;
6549;SDS011;15142;48.888;9.134;2023-04-24T07:16:01;1.40;;;1.30;;
6549;SDS011;15142;48.888;9.134;2023-04-24T07:18:32;1.80;;;1.40;;
6549;SDS011;15142;48.888;9.134;2023-04-24T07:21:01;1.90;;;1.50;;
6549;SDS011;15142;48.888;9.134;2023-04-24T07:23:31;1.30;;;1.30;;
6549;SDS011;15142;48.888;9.134;2023-04-24T07:26:00;1.00;;;1.00;;
6549;SDS011;15142;48.888;9.134;2023-04-24T07:28:29;1.80;;;1.80;;
6549;SDS011;15142;48.888;9.134;2023-04-24T07:30:58;1.67;;;1.50;;
6549;SDS011;15142;48.888;9.134;2023-04-24T07:33:26;1.47;;;1.37;;
6549;SDS011;15142;48.888;9.134;2023-04-24T07:35:58;1.43;;;1.33;;
6549;SDS011;15142;48.888;9.134;2023-04-24T07:38:28;1.37;;;1.27;;
6549;SDS011;15142;48.888;9.134;2023-04-24T07:40:57;4.13;;;1.00;;
6549;SDS011;15142;48.888;9.134;2023-04-24T07:43:26;1.03;;;1.00;;
6549;SDS011;15142;48.888;9.134;2023-04-24T07:45:55;1.17;;;1.17;;
6549;SDS011;15142;48.888;9.134;2023-04-24T07:48:23;1.40;;;1.30;;
6549;SDS011;15142;48.888;9.134;2023-04-24T07:50:53;1.73;;;1.37;;
6549;SDS011;15142;48.888;9.134;2023-04-24T07:53:24;1.00;;;1.00;;
6549;SDS011;15142;48.888;9.134;2023-04-24T07:55:53;2.93;;;1.13;;
6549;SDS011;15142;48.888;9.134;2023-04-24T07:58:22;1.27;;;1.23;;
6549;SDS011;15142;48.888;9.134;2023-04-24T08:00:51;0.90;;;0.90;;
6549;SDS011;15142;48.888;9.134;2023-04-24T08:03:20;1.53;;;1.43;;
6549;SDS011;15142;48.888;9.134;2023-04-24T08:05:49;1.40;;;1.30;;
6549;SDS011;15142;48.888;9.134;2023-04-24T08:08:20;1.63;;;1.53;;
6549;SDS011;15142;48.888;9.134;2023-04-24T08:10:52;1.50;;;1.40;;
6549;SDS011;15142;48.888;9.134;2023-04-24T08:13:21;2.83;;;1.37;;
6549;SDS011;15142;48.888;9.134;2023-04-24T08:15:50;1.67;;;1.10;;
6549;SDS011;15142;48.888;9.134;2023-04-24T08:18:18;2.13;;;1.03;;
6549;SDS011;15142;48.888;9.134;2023-04-24T08:20:47;1.73;;;1.40;;
6549;SDS011;15142;48.888;9.134;2023-04-24T08:23:15;1.10;;;1.10;;
6549;SDS011;15142;48.888;9.134;2023-04-24T08:25:44;6.63;;;1.67;;
6549;SDS011;15142;48.888;9.134;2023-04-24T08:28:15;1.50;;;1.00;;
6549;SDS011;15142;48.888;9.134;2023-04-24T08:30:45;1.47;;;1.37;;
6549;SDS011;15142;48.888;9.134;2023-04-24T08:33:19;1.40;;;1.30;;
6549;SDS011;15142;48.888;9.134;2023-04-24T08:35:48;1.30;;;1.20;;
6549;SDS011;15142;48.888;9.134;2023-04-24T08:38:17;1.40;;;1.30;;
6549;SDS011;15142;48.888;9.134;2023-04-24T08:40:45;2.00;;;1.20;;
6549;SDS011;15142;48.888;9.134;2023-04-24T08:43:17;0.87;;;0.87;;
6549;SDS011;15142;48.888;9.134;2023-04-24T08:45:48;4.70;;;1.23;;
6549;SDS011;15142;48.888;9.134;2023-04-24T08:48:17;3.60;;;1.37;;
6549;SDS011;15142;48.888;9.134;2023-04-24T08:50:46;1.03;;;1.03;;
6549;SDS011;15142;48.888;9.134;2023-04-24T08:53:16;1.60;;;1.50;;
6549;SDS011;15142;48.888;9.134;2023-04-24T08:55:46;1.30;;;1.20;;
6549;SDS011;15142;48.888;9.134;2023-04-24T08:58:20;1.17;;;1.13;;
6549;SDS011;15142;48.888;9.134;2023-04-24T09:00:48;8.30;;;1.23;;
6549;SDS011;15142;48.888;9.134;2023-04-24T09:03:17;1.20;;;1.10;;
6549;SDS011;15142;48.888;9.134;2023-04-24T09:05:47;0.83;;;0.83;;
6549;SDS011;15142;48.888;9.134;2023-04-24T09:08:16;2.07;;;1.53;;
6549;SDS011;15142;48.888;9.134;2023-04-24T09:10:46;1.20;;;1.20;;
6549;SDS011;15142;48.888;9.134;2023-04-24T09:13:15;1.20;;;1.10;;
6549;SDS011;15142;48.888;9.134;2023-04-24T09:15:46;1.00;;;1.00;;
6549;SDS011;15142;48.888;9.134;2023-04-24T09:18:15;0.77;;;0.77;;
6549;SDS011;15142;48.888;9.134;2023-04-24T09:20:57;5.33;;;1.60;;
6549;SDS011;15142;48.888;9.134;2023-04-24T09:23:27;0.90;;;0.90;;
6549;SDS011;15142;48.888;9.134;2023-04-24T09:25:57;1.57;;;1.03;;
6549;SDS011;15142;48.888;9.134;2023-04-24T09:28:27;4.83;;;0.80;;
6549;SDS011;15142;48.888;9.134;2023-04-24T09:31:05;2.97;;;1.30;;
6549;SDS011;15142;48.888;9.134;2023-04-24T09:33:35;2.53;;;2.00;;
6549;SDS011;15142;48.888;9.134;2023-04-24T09:36:04;0.97;;;0.80;;
6549;SDS011;15142;48.888;9.134;2023-04-24T09:38:34;0.80;;;0.80;;
6549;SDS011;15142;48.888;9.134;2023-04-24T09:41:04;2.60;;;1.13;;
6549;SDS011;15142;48.888;9.134;2023-04-24T09:43:34;1.93;;;1.30;;
6549;SDS011;15142;48.888;9.134;2023-04-24T09:46:07;1.27;;;1.20;;
6549;SDS011;15142;48.888;9.134;2023-04-24T09:48:37;3.07;;;0.73;;
6549;SDS011;15142;48.888;9.134;2023-04-24T09:51:06;2.03;;;1.10;;
6549;SDS011;15142;48.888;9.134;2023-04-24T09:53:36;2.20;;;0.80;;
6549;SDS011;15142;48.888;9.134;2023-04-24T09:56:09;0.90;;;0.90;;
6549;SDS011;15142;48.888;9.134;2023-04-24T09:58:40;5.53;;;1.80;;
6549;SDS011;15142;48.888;9.134;2023-04-24T10:01:11;0.93;;;0.93;;
6549;SDS011;15142;48.888;9.134;2023-04-24T10:03:42;1.23;;;1.13;;
6549;SDS011;15142;48.888;9.134;2023-04-24T10:06:12;1.20;;;1.20;;
6549;SDS011;15142;48.888;9.134;2023-04-24T10:08:41;0.90;;;0.90;;
6549;SDS011;15142;48.888;9.134;2023-04-24T10:11:11;0.90;;;0.90;;
6549;SDS011;15142;48.888;9.134;2023-04-24T10:13:40;1.70;;;1.20;;
6549;SDS011;15142;48.888;9.134;2023-04-24T10:16:12;1.83;;;1.50;;
6549;SDS011;15142;48.888;9.134;2023-04-24T10:18:41;1.00;;;1.00;;
6549;SDS011;15142;48.888;9.134;2023-04-24T10:21:10;1.30;;;1.20;;
6549;SDS011;15142;48.888;9.134;2023-04-24T10:23:39;0.93;;;0.93;;
6549;SDS011;15142;48.888;9.134;2023-04-24T10:26:11;1.30;;;1.30;;
6549;SDS011;15142;48.888;9.134;2023-04-24T10:28:43;1.10;;;1.00;;
6549;SDS011;15142;48.888;9.134;2023-04-24T10:31:16;1.17;;;1.10;;
6549;SDS011;15142;48.888;9.134;2023-04-24T10:33:46;1.90;;;1.40;;
6549;SDS011;15142;48.888;9.134;2023-04-24T10:36:15;1.27;;;1.20;;
6549;SDS011;15142;48.888;9.134;2023-04-24T10:38:46;1.30;;;1.20;;
6549;SDS011;15142;48.888;9.134;2023-04-24T10:41:16;1.60;;;1.27;;
6549;SDS011;15142;48.888;9.134;2023-04-24T10:43:48;1.43;;;1.33;;
6549;SDS011;15142;48.888;9.134;2023-04-24T10:46:34;1.47;;;1.37;;
6549;SDS011;15142;48.888;9.134;2023-04-24T10:49:04;1.50;;;1.40;;
6549;SDS011;15142;48.888;9.134;2023-04-24T10:51:44;1.20;;;1.20;;
6549;SDS011;15142;48.888;9.134;2023-04-24T10:54:24;1.37;;;1.27;;
6549;SDS011;15142;48.888;9.134;2023-04-24T10:56:56;1.33;;;1.10;;
6549;SDS011;15142;48.888;9.134;2023-04-24T11:02:46;1.97;;;1.60;;
6549;SDS011;15142;48.888;9.134;2023-04-24T11:05:19;1.20;;;1.10;;
6549;SDS011;15142;48.888;9.134;2023-04-24T11:08:09;1.07;;;1.07;;
6549;SDS011;15142;48.888;9.134;2023-04-24T11:10:39;1.70;;;1.60;;
6549;SDS011;15142;48.888;9.134;2023-04-24T11:13:08;1.07;;;1.07;;
6549;SDS011;15142;48.888;9.134;2023-04-24T11:15:37;1.30;;;1.20;;
6549;SDS011;15142;48.888;9.134;2023-04-24T11:18:15;0.93;;;0.93;;
6549;SDS011;15142;48.888;9.134;2023-04-24T11:20:44;0.97;;;0.97;;
6549;SDS011;15142;48.888;9.134;2023-04-24T11:23:13;2.50;;;1.10;;
6549;SDS011;15142;48.888;9.134;2023-04-24T11:25:43;1.50;;;1.40;;
6549;SDS011;15142;48.888;9.134;2023-04-24T11:28:14;1.50;;;1.40;;
6549;SDS011;15142;48.888;9.134;2023-04-24T11:30:44;1.77;;;1.67;;
6549;SDS011;15142;48.888;9.134;2023-04-24T11:33:16;1.30;;;1.20;;
6549;SDS011;15142;48.888;9.134;2023-04-24T11:35:48;1.70;;;1.60;;
6549;SDS011;15142;48.888;9.134;2023-04-24T11:38:19;0.93;;;0.90;;
6549;SDS011;15142;48.888;9.134;2023-04-24T11:40:48;1.43;;;1.33;;
6549;SDS011;15142;48.888;9.134;2023-04-24T11:43:17;2.30;;;1.17;;
6549;SDS011;15142;48.888;9.134;2023-04-24T11:45:48;1.00;;;1.00;;
6549;SDS011;15142;48.888;9.134;2023-04-24T11:48:20;0.90;;;0.90;;
6549;SDS011;15142;48.888;9.134;2023-04-24T11:50:50;0.63;;;0.63;;
6549;SDS011;15142;48.888;9.134;2023-04-24T11:53:19;0.90;;;0.90;;
6549;SDS011;15142;48.888;9.134;2023-04-24T11:55:48;1.23;;;1.00;;
6549;SDS011;15142;48.888;9.134;2023-04-24T11:58:16;1.17;;;1.07;;
6549;SDS011;15142;48.888;9.134;2023-04-24T12:00:53;1.63;;;1.53;;
6549;SDS011;15142;48.888;9.134;2023-04-24T12:03:27;1.73;;;1.10;;
6549;SDS011;15142;48.888;9.134;2023-04-24T12:06:04;1.23;;;1.20;;
6549;SDS011;15142;48.888;9.134;2023-04-24T12:08:33;1.30;;;1.20;;
6549;SDS011;15142;48.888;9.134;2023-04-24T12:11:03;2.87;;;1.00;;
6549;SDS011;15142;48.888;9.134;2023-04-24T12:13:34;0.57;;;0.57;;
6549;SDS011;15142;48.888;9.134;2023-04-24T12:16:03;1.67;;;1.57;;
6549;SDS011;15142;48.888;9.134;2023-04-24T12:18:40;2.97;;;1.10;;
6549;SDS011;15142;48.888;9.134;2023-04-24T12:21:16;1.50;;;1.50;;
6549;SDS011;15142;48.888;9.134;2023-04-24T12:23:46;1.80;;;1.53;;
6549;SDS011;15142;48.888;9.134;2023-04-24T12:26:16;2.07;;;1.60;;
6549;SDS011;15142;48.888;9.134;2023-04-24T12:28:48;1.20;;;1.10;;
6549;SDS011;15142;48.888;9.134;2023-04-24T12:31:17;1.20;;;1.20;;
6549;SDS011;15142;48.888;9.134;2023-04-24T12:33:52;1.53;;;1.50;;
6549;SDS011;15142;48.888;9.134;2023-04-24T12:36:21;1.20;;;1.20;;
6549;SDS011;15142;48.888;9.134;2023-04-24T12:38:52;1.60;;;1.47;;
6549;SDS011;15142;48.888;9.134;2023-04-24T12:41:21;1.13;;;1.13;;
6549;SDS011;15142;48.888;9.134;2023-04-24T12:43:53;1.57;;;1.47;;
6549;SDS011;15142;48.888;9.134;2023-04-24T12:46:22;1.13;;;1.10;;
6549;SDS011;15142;48.888;9.134;2023-04-24T12:48:53;1.43;;;1.43;;
6549;SDS011;15142;48.888;9.134;2023-04-24T12:51:23;1.10;;;1.10;;
6549;SDS011;15142;48.888;9.134;2023-04-24T12:53:52;2.53;;;1.40;;
6549;SDS011;15142;48.888;9.134;2023-04-24T12:56:21;2.20;;;1.57;;
6549;SDS011;15142;48.888;9.134;2023-04-24T12:58:49;1.63;;;1.03;;
6549;SDS011;15142;48.888;9.134;2023-04-24T13:01:18;1.97;;;1.17;;
6549;SDS011;15142;48.888;9.134;2023-04-24T13:03:46;1.10;;;1.10;;
6549;SDS011;15142;48.888;9.134;2023-04-24T13:06:18;1.07;;;1.07;;
6549;SDS011;15142;48.888;9.134;2023-04-24T13:08:46;1.30;;;1.30;;
6549;SDS011;15142;48.888;9.134;2023-04-24T13:11:16;3.27;;;1.73;;
6549;SDS011;15142;48.888;9.134;2023-04-24T13:13:45;1.53;;;1.47;;
6549;SDS011;15142;48.888;9.134;2023-04-24T13:16:13;1.13;;;1.13;;
6549;SDS011;15142;48.888;9.134;2023-04-24T13:18:42;2.17;;;1.60;;
6549;SDS011;15142;48.888;9.134;2023-04-24T13:21:11;6.13;;;1.87;;
6549;SDS011;15142;48.888;9.134;2023-04-24T13:23:42;1.90;;;1.80;;
6549;SDS011;15142;48.888;9.134;2023-04-24T13:26:11;1.70;;;1.60;;
6549;SDS011;15142;48.888;9.134;2023-04-24T13:28:39;2.83;;;1.40;;
6549;SDS011;15142;48.888;9.134;2023-04-24T13:31:08;1.60;;;1.50;;
6549;SDS011;15142;48.888;9.134;2023-04-24T13:33:37;3.10;;;1.40;;
6549;SDS011;15142;48.888;9.134;2023-04-24T13:36:06;4.53;;;1.67;;
6549;SDS011;15142;48.888;9.134;2023-04-24T13:38:34;5.47;;;2.10;;
6549;SDS011;15142;48.888;9.134;2023-04-24T13:41:06;1.57;;;1.47;;
6549;SDS011;15142;48.888;9.134;2023-04-24T13:43:35;1.60;;;1.50;;
6549;SDS011;15142;48.888;9.134;2023-04-24T13:46:03;2.00;;;1.57;;
6549;SDS011;15142;48.888;9.134;2023-04-24T13:48:32;3.30;;;1.70;;
6549;SDS011;15142;48.888;9.134;2023-04-24T13:51:00;5.20;;;1.50;;
6549;SDS011;15142;48.888;9.134;2023-04-24T13:53:29;2.00;;;1.70;;
6549;SDS011;15142;48.888;9.134;2023-04-24T13:56:01;4.80;;;1.60;;
6549;SDS011;15142;48.888;9.134;2023-04-24T13:58:32;1.97;;;1.87;;
6549;SDS011;15142;48.888;9.134;2023-04-24T14:01:02;2.50;;;1.17;;
6549;SDS011;15142;48.888;9.134;2023-04-24T14:03:32;2.30;;;2.10;;
6549;SDS011;15142;48.888;9.134;2023-04-24T14:06:01;1.70;;;1.60;;
6549;SDS011;15142;48.888;9.134;2023-04-24T14:08:31;2.00;;;1.90;;
6549;SDS011;15142;48.888;9.134;2023-04-24T14:11:00;1.87;;;1.10;;
6549;SDS011;15142;48.888;9.134;2023-04-24T14:13:28;2.67;;;1.63;;
6549;SDS011;15142;48.888;9.134;2023-04-24T14:16:00;2.17;;;1.80;;
6549;SDS011;15142;48.888;9.134;2023-04-24T14:18:29;3.90;;;2.20;;
6549;SDS011;15142;48.888;9.134;2023-04-24T14:20:57;2.10;;;1.90;;
6549;SDS011;15142;48.888;9.134;2023-04-24T14:23:26;1.10;;;1.10;;
6549;SDS011;15142;48.888;9.134;2023-04-24T14:25:55;1.83;;;1.20;;
6549;SDS011;15142;48.888;9.134;2023-04-24T14:28:25;1.80;;;1.60;;
6549;SDS011;15142;48.888;9.134;2023-04-24T14:30:54;2.40;;;1.97;;
6549;SDS011;15142;48.888;9.134;2023-04-24T14:33:25;1.60;;;1.50;;
6549;SDS011;15142;48.888;9.134;2023-04-24T14:35:54;3.13;;;2.47;;
6549;SDS011;15142;48.888;9.134;2023-04-24T14:38:22;2.80;;;1.90;;
6549;SDS011;15142;48.888;9.134;2023-04-24T14:40:51;5.73;;;2.53;;
6549;SDS011;15142;48.888;9.134;2023-04-24T14:43:20;2.63;;;1.93;;
6549;SDS011;15142;48.888;9.134;2023-04-24T14:45:48;2.93;;;1.67;;
6549;SDS011;15142;48.888;9.134;2023-04-24T14:48:17;2.40;;;2.20;;
6549;SDS011;15142;48.888;9.134;2023-04-24T14:50:48;1.83;;;1.70;;
6549;SDS011;15142;48.888;9.134;2023-04-24T14:53:16;1.40;;;1.40;;
6549;SDS011;15142;48.888;9.134;2023-04-24T14:55:45;1.60;;;1.50;;
6549;SDS011;15142;48.888;9.134;2023-04-24T14:58:14;1.63;;;1.20;;
6549;SDS011;15142;48.888;9.134;2023-04-24T15:00:42;1.33;;;1.30;;
6549;SDS011;15142;48.888;9.134;2023-04-24T15:03:11;1.20;;;1.10;;
6549;SDS011;15142;48.888;9.134;2023-04-24T15:05:39;3.10;;;1.63;;
6549;SDS011;15142;48.888;9.134;2023-04-24T15:08:11;1.40;;;1.40;;
6549;SDS011;15142;48.888;9.134;2023-04-24T15:10:39;3.60;;;1.47;;
6549;SDS011;15142;48.888;9.134;2023-04-24T15:13:08;1.20;;;1.20;;
6549;SDS011;15142;48.888;9.134;2023-04-24T15:15:36;1.80;;;1.20;;
6549;SDS011;15142;48.888;9.134;2023-04-24T15:18:05;5.50;;;1.40;;
6549;SDS011;15142;48.888;9.134;2023-04-24T15:20:37;1.40;;;1.30;;
6549;SDS011;15142;48.888;9.134;2023-04-24T15:23:07;3.40;;;2.00;;